Time;durP1;ratioP1;P1;durP2;ratioP2;P2;SDS_P1;SDS_P2;PMS_P1;PMS_P2;Temp;Humidity;BMP_temperature;BMP_pressure;BME280_temperature;BME280_humidity;BME280_pressure;Samples;Min_cycle;Max_cycle;Signal;HPM_P1;HPM_P2
2022/07/30 00:00:38;;;;;;;5.00;3.88;;;17.00;99.90;;;;;;5052042;28;20059;-71
2022/07/30 00:03:10;;;;;;;4.38;3.97;;;17.00;99.90;;;;;;5046947;28;20037;-71
2022/07/30 00:05:42;;;;;;;5.25;4.75;;;17.00;99.90;;;;;;5042428;28;20048;-71
2022/07/30 00:08:14;;;;;;;5.40;3.85;;;17.00;99.90;;;;;;5051418;28;20092;-71
2022/07/30 00:10:46;;;;;;;5.18;4.68;;;17.00;99.90;;;;;;5047730;28;20040;-71
2022/07/30 00:13:17;;;;;;;4.10;3.70;;;17.00;99.90;;;;;;5038002;28;20124;-71
2022/07/30 00:15:49;;;;;;;3.85;3.53;;;17.00;99.90;;;;;;5050926;28;20516;-71
2022/07/30 00:18:21;;;;;;;4.53;4.00;;;16.90;99.90;;;;;;5049097;28;20041;-71
2022/07/30 00:20:53;;;;;;;4.47;4.07;;;16.90;99.90;;;;;;5051675;28;20163;-72
2022/07/30 00:23:24;;;;;;;4.40;4.00;;;16.90;99.90;;;;;;5030892;28;20041;-71
2022/07/30 00:25:56;;;;;;;5.28;4.10;;;16.80;99.90;;;;;;5046304;28;20041;-71
2022/07/30 00:28:28;;;;;;;4.35;3.95;;;16.80;99.90;;;;;;5049661;28;20548;-71
2022/07/30 00:31:01;;;;;;;5.18;4.28;;;16.80;99.90;;;;;;5033329;28;20521;-71
2022/07/30 00:33:32;;;;;;;4.28;3.88;;;16.80;99.90;;;;;;5027507;28;20045;-71
2022/07/30 00:36:04;;;;;;;4.47;4.00;;;16.80;99.90;;;;;;5030606;28;20045;-71
2022/07/30 00:38:36;;;;;;;4.78;4.32;;;16.80;99.90;;;;;;5041874;28;20069;-71
2022/07/30 00:41:07;;;;;;;4.72;4.28;;;16.70;99.90;;;;;;5031303;28;20049;-71
2022/07/30 00:43:39;;;;;;;4.80;4.40;;;16.70;99.90;;;;;;5048692;28;20479;-71
2022/07/30 00:46:13;;;;;;;5.32;4.45;;;16.70;99.90;;;;;;5042952;28;20037;-71
2022/07/30 00:48:45;;;;;;;6.25;4.72;;;16.70;99.90;;;;;;5050390;28;20135;-71
2022/07/30 00:51:17;;;;;;;7.13;4.68;;;16.70;99.90;;;;;;5047883;28;20037;-71
2022/07/30 00:53:49;;;;;;;4.78;4.38;;;16.70;99.90;;;;;;5048568;28;20099;-71
2022/07/30 00:56:21;;;;;;;5.05;4.55;;;16.70;99.90;;;;;;5048608;28;20052;-71
2022/07/30 00:58:52;;;;;;;7.30;5.25;;;16.60;99.90;;;;;;5051507;28;20124;-71
2022/07/30 01:01:24;;;;;;;5.00;4.57;;;16.60;99.90;;;;;;5046968;28;20056;-71
2022/07/30 01:03:51;;;;;;;5.65;5.15;;;16.60;99.90;;;;;;5031090;28;20045;-71
2022/07/30 01:06:23;;;;;;;5.55;5.05;;;16.60;99.90;;;;;;5031615;28;20041;-71
2022/07/30 01:08:54;;;;;;;5.15;4.65;;;16.60;99.90;;;;;;5042015;28;20127;-71
2022/07/30 01:11:34;;;;;;;5.93;5.00;;;16.60;99.90;;;;;;5050310;28;20048;-71
2022/07/30 01:14:07;;;;;;;5.70;5.03;;;16.60;99.90;;;;;;5057666;23;20129;-72
2022/07/30 01:16:36;;;;;;;6.15;5.18;;;16.60;99.90;;;;;;4995200;28;20049;-72
2022/07/30 01:22:15;;;;;;;6.20;5.00;;;16.60;99.90;;;;;;5007793;28;20073;-72
2022/07/30 01:25:02;;;;;;;5.65;5.15;;;16.60;99.90;;;;;;4998967;28;20042;-72
2022/07/30 01:27:32;;;;;;;6.53;5.18;;;16.60;99.90;;;;;;5016938;28;20041;-71
2022/07/30 01:30:05;;;;;;;5.57;4.97;;;16.60;99.90;;;;;;5010729;28;20045;-71
2022/07/30 01:32:40;;;;;;;8.95;5.13;;;16.60;99.90;;;;;;5007955;28;20075;-71
2022/07/30 01:35:13;;;;;;;6.57;5.25;;;16.60;99.90;;;;;;4997791;28;20123;-70
2022/07/30 01:37:46;;;;;;;6.03;5.20;;;16.60;99.90;;;;;;5005885;28;20064;-71
2022/07/30 01:40:19;;;;;;;5.47;5.03;;;16.70;99.90;;;;;;5007143;28;20044;-71
2022/07/30 01:42:57;;;;;;;5.65;4.85;;;16.70;99.90;;;;;;5002182;28;20052;-72
2022/07/30 01:45:30;;;;;;;5.65;5.10;;;16.70;99.90;;;;;;4994232;28;20051;-72
2022/07/30 01:48:04;;;;;;;5.40;4.90;;;16.70;99.90;;;;;;5002335;28;20041;-71
2022/07/30 01:50:33;;;;;;;6.65;5.20;;;16.70;99.90;;;;;;4987434;28;20046;-72
2022/07/30 01:53:09;;;;;;;5.75;5.25;;;16.70;99.90;;;;;;5002587;28;20045;-71
2022/07/30 01:55:42;;;;;;;7.63;5.65;;;16.80;99.90;;;;;;5000080;28;20129;-72
2022/07/30 01:58:17;;;;;;;;;;;16.70;99.90;;;;;;5015660;28;20033;-71
2022/07/30 02:00:56;;;;;;;6.07;5.47;;;16.70;99.90;;;;;;5012148;28;19921;-71
2022/07/30 02:03:29;;;;;;;7.38;5.32;;;16.80;99.90;;;;;;4989089;28;20092;-71
2022/07/30 02:06:25;;;;;;;5.80;5.20;;;16.80;99.90;;;;;;4995907;28;20069;-71
2022/07/30 02:09:02;;;;;;;5.88;5.28;;;16.80;99.90;;;;;;5017660;28;20045;-71
2022/07/30 02:14:48;;;;;;;6.00;4.90;;;16.90;99.90;;;;;;5002459;28;20065;-70
2022/07/30 02:17:27;;;;;;;6.35;5.15;;;16.90;99.90;;;;;;5016807;28;20511;-71
2022/07/30 02:19:59;;;;;;;6.30;5.25;;;16.90;99.90;;;;;;4996422;28;20045;-71
2022/07/30 02:22:36;;;;;;;6.50;5.90;;;16.90;99.90;;;;;;5007064;28;20055;-70
2022/07/30 02:25:09;;;;;;;7.35;5.53;;;17.00;99.90;;;;;;4990856;28;20050;-71
2022/07/30 02:27:43;;;;;;;6.70;4.65;;;17.00;99.90;;;;;;5005810;28;20537;-71
2022/07/30 02:30:15;;;;;;;5.38;4.88;;;17.00;99.90;;;;;;4974481;28;20097;-71
2022/07/30 02:32:49;;;;;;;8.38;5.53;;;16.90;99.90;;;;;;4989223;28;20050;-71
2022/07/30 02:35:25;;;;;;;6.30;5.78;;;17.00;99.90;;;;;;5005308;28;20045;-71
2022/07/30 02:38:00;;;;;;;9.02;5.03;;;16.90;99.90;;;;;;4975368;28;20480;-71
2022/07/30 02:40:32;;;;;;;6.25;4.90;;;16.90;99.90;;;;;;5024676;28;20054;-71
2022/07/30 02:43:04;;;;;;;5.97;5.05;;;16.90;99.90;;;;;;5020693;28;20069;-71
2022/07/30 02:45:37;;;;;;;5.53;4.93;;;16.90;99.90;;;;;;4999488;28;20123;-71
2022/07/30 02:48:12;;;;;;;5.32;4.82;;;16.90;99.90;;;;;;5009162;28;20037;-70
2022/07/30 02:50:45;;;;;;;6.00;5.40;;;16.90;99.90;;;;;;5003749;28;20057;-71
2022/07/30 02:53:19;;;;;;;5.43;4.77;;;16.90;99.90;;;;;;5023298;28;20042;-71
2022/07/30 02:55:53;;;;;;;6.68;4.95;;;16.90;99.90;;;;;;5013563;28;20045;-71
2022/07/30 02:58:26;;;;;;;5.28;4.78;;;16.90;99.90;;;;;;4988355;28;20054;-70
2022/07/30 03:00:58;;;;;;;6.55;5.10;;;16.90;99.90;;;;;;5008087;28;20493;-71
2022/07/30 03:03:31;;;;;;;6.22;5.20;;;16.90;99.90;;;;;;5013213;28;20137;-71
2022/07/30 03:06:04;;;;;;;8.18;5.72;;;16.90;99.90;;;;;;4979004;28;20116;-70
2022/07/30 03:08:36;;;;;;;6.15;5.55;;;16.80;99.90;;;;;;4990102;28;20038;-71
2022/07/30 03:11:10;;;;;;;6.13;5.28;;;16.80;99.90;;;;;;5020054;28;20129;-71
2022/07/30 03:13:42;;;;;;;6.03;5.35;;;16.80;99.90;;;;;;5018237;28;20056;-70
2022/07/30 03:16:17;;;;;;;5.30;4.80;;;16.70;99.90;;;;;;5006025;28;20049;-71
2022/07/30 03:18:51;;;;;;;6.28;5.22;;;16.70;99.90;;;;;;5021635;28;20413;-71
2022/07/30 03:21:25;;;;;;;9.98;5.75;;;16.80;99.90;;;;;;5008424;28;20049;-71
2022/07/30 03:24:02;;;;;;;5.40;4.90;;;16.70;99.90;;;;;;4993600;28;20053;-71
2022/07/30 03:26:36;;;;;;;6.63;5.07;;;16.70;99.90;;;;;;4999758;28;20045;-71
2022/07/30 03:29:03;;;;;;;5.80;5.28;;;16.70;99.90;;;;;;5011648;28;20494;-71
2022/07/30 03:31:39;;;;;;;6.03;5.13;;;16.70;99.90;;;;;;5002804;28;20099;-71
2022/07/30 03:34:11;;;;;;;5.78;5.20;;;16.70;99.90;;;;;;5001797;28;20077;-71
2022/07/30 03:36:43;;;;;;;5.60;4.90;;;16.70;99.90;;;;;;5017426;28;20072;-71
2022/07/30 03:39:16;;;;;;;5.28;4.85;;;16.70;99.90;;;;;;5004442;28;20073;-71
2022/07/30 03:41:49;;;;;;;8.95;6.03;;;16.70;99.90;;;;;;5000411;28;20137;-71
2022/07/30 03:44:22;;;;;;;5.75;5.13;;;16.60;99.90;;;;;;5004009;28;20061;-71
2022/07/30 03:46:52;;;;;;;5.63;5.13;;;16.70;99.90;;;;;;4985840;28;20097;-71
2022/07/30 03:49:22;;;;;;;5.85;5.03;;;16.70;99.90;;;;;;4988406;28;20076;-71
2022/07/30 03:51:55;;;;;;;5.88;5.13;;;16.70;99.90;;;;;;5017636;28;20058;-71
2022/07/30 03:54:27;;;;;;;6.93;5.32;;;16.70;99.90;;;;;;4996198;28;20060;-70
2022/07/30 03:57:19;;;;;;;6.03;5.43;;;16.70;99.90;;;;;;5003395;28;20049;-71
2022/07/30 03:59:51;;;;;;;6.53;5.00;;;16.70;99.90;;;;;;4996340;28;20145;-70
2022/07/30 04:02:23;;;;;;;5.82;5.20;;;16.70;99.90;;;;;;5013421;28;20053;-71
2022/07/30 04:05:18;;;;;;;5.50;4.72;;;16.70;99.90;;;;;;4999473;28;20054;-71
2022/07/30 04:07:50;;;;;;;6.55;5.78;;;16.80;99.90;;;;;;5019194;28;20050;-71
2022/07/30 04:10:24;;;;;;;6.50;4.82;;;16.80;99.90;;;;;;5018769;28;20089;-71
2022/07/30 04:12:59;;;;;;;5.78;4.97;;;16.80;99.90;;;;;;5019129;28;20577;-71
2022/07/30 04:15:54;;;;;;;5.18;4.53;;;16.90;99.90;;;;;;4998641;28;20065;-71
2022/07/30 04:18:29;;;;;;;5.22;4.72;;;16.90;99.90;;;;;;5001359;28;20430;-71
2022/07/30 04:21:04;;;;;;;5.78;4.90;;;16.90;99.90;;;;;;5002449;28;20049;-71
2022/07/30 04:23:38;;;;;;;6.72;5.22;;;16.90;99.90;;;;;;5007198;28;20070;-71
2022/07/30 04:26:11;;;;;;;5.97;5.47;;;17.00;99.90;;;;;;4993566;28;20045;-71
2022/07/30 04:28:43;;;;;;;6.57;5.93;;;16.90;99.90;;;;;;5019962;28;20041;-71
2022/07/30 04:31:15;;;;;;;6.82;6.13;;;17.00;99.90;;;;;;5018952;28;20391;-71
2022/07/30 04:33:47;;;;;;;6.38;4.95;;;17.00;99.90;;;;;;4989497;28;20037;-71
2022/07/30 04:36:27;;;;;;;5.80;5.15;;;17.00;99.90;;;;;;4998087;28;20575;-71
2022/07/30 04:38:59;;;;;;;6.40;5.40;;;17.00;99.90;;;;;;5004090;28;20049;-71
2022/07/30 04:41:31;;;;;;;5.60;4.72;;;17.00;99.90;;;;;;5002702;28;20056;-71
2022/07/30 04:44:24;;;;;;;5.97;5.35;;;17.00;99.90;;;;;;4996612;28;20046;-71
2022/07/30 04:47:16;;;;;;;10.38;5.88;;;17.00;99.90;;;;;;5014378;28;20053;-71
2022/07/30 04:50:08;;;;;;;6.03;5.45;;;17.00;99.90;;;;;;5004241;28;20060;-71
2022/07/30 04:52:43;;;;;;;5.97;5.32;;;17.00;99.90;;;;;;5010764;28;20132;-71
2022/07/30 04:55:22;;;;;;;6.95;5.70;;;17.00;99.90;;;;;;5008463;28;20049;-71
2022/07/30 04:57:56;;;;;;;5.88;5.15;;;17.00;99.90;;;;;;4995514;28;20124;-71
2022/07/30 05:00:33;;;;;;;7.35;5.25;;;17.00;99.90;;;;;;5015098;28;20074;-71
2022/07/30 05:03:03;;;;;;;6.72;5.78;;;17.10;99.90;;;;;;4999883;28;20093;-71
2022/07/30 05:05:36;;;;;;;6.88;5.38;;;17.10;99.90;;;;;;4982462;28;20510;-71
2022/07/30 05:08:08;;;;;;;8.68;6.32;;;17.10;99.90;;;;;;5019752;28;20132;-71
2022/07/30 05:10:41;;;;;;;5.82;5.22;;;17.10;99.90;;;;;;5016740;28;20049;-71
2022/07/30 05:13:14;;;;;;;6.35;5.75;;;17.10;99.90;;;;;;5000266;28;20042;-71
2022/07/30 05:15:47;;;;;;;7.65;5.80;;;17.10;99.90;;;;;;5008616;28;20045;-71
2022/07/30 05:18:20;;;;;;;;;;;17.10;99.90;;;;;;5018152;28;20050;-71
2022/07/30 05:20:51;;;;;;;6.82;5.95;;;17.10;99.90;;;;;;5027108;28;19992;-71
2022/07/30 05:23:30;;;;;;;9.18;5.78;;;17.10;99.90;;;;;;4995501;28;20053;-71
2022/07/30 05:26:20;;;;;;;8.25;6.03;;;17.20;99.90;;;;;;5000938;28;20049;-71
2022/07/30 05:28:52;;;;;;;8.27;5.80;;;17.30;99.90;;;;;;4982211;28;20076;-71
2022/07/30 05:31:31;;;;;;;6.25;5.65;;;17.30;99.90;;;;;;5001294;28;20421;-71
2022/07/30 05:34:03;;;;;;;6.30;5.70;;;17.30;99.90;;;;;;5007140;28;20740;-71
2022/07/30 05:36:43;;;;;;;9.75;6.55;;;17.30;99.90;;;;;;4993005;28;20142;-71
2022/07/30 05:39:16;;;;;;;9.15;5.90;;;17.30;99.90;;;;;;5001359;28;20050;-71
2022/07/30 05:41:51;;;;;;;7.32;5.68;;;17.30;99.90;;;;;;5020272;28;20058;-71
2022/07/30 05:44:37;;;;;;;9.68;6.15;;;17.30;99.90;;;;;;4994405;28;20429;-71
2022/07/30 05:47:09;;;;;;;9.82;6.57;;;17.20;99.90;;;;;;4986097;28;20398;-71
2022/07/30 05:49:43;;;;;;;5.97;5.38;;;17.20;99.90;;;;;;5017013;28;20104;-71
2022/07/30 05:52:15;;;;;;;9.52;6.00;;;17.30;99.90;;;;;;5003511;28;20064;-71
2022/07/30 05:54:48;;;;;;;7.80;5.95;;;17.30;99.90;;;;;;4980551;28;20518;-70
2022/07/30 05:57:41;;;;;;;8.00;6.25;;;17.40;99.90;;;;;;5015706;28;20061;-71
2022/07/30 06:00:13;;;;;;;8.38;6.45;;;17.40;99.90;;;;;;4996732;28;20047;-71
2022/07/30 06:02:51;;;;;;;7.18;6.30;;;17.50;99.90;;;;;;5013581;28;20585;-71
2022/07/30 06:05:24;;;;;;;8.68;7.88;;;17.50;99.90;;;;;;5008169;28;20133;-71
2022/07/30 06:07:59;;;;;;;7.28;6.53;;;17.60;99.90;;;;;;5003189;28;20034;-71
2022/07/30 06:10:28;;;;;;;7.43;6.65;;;17.70;99.90;;;;;;5017998;28;20041;-71
2022/07/30 06:13:00;;;;;;;9.07;6.82;;;17.70;99.90;;;;;;4990430;28;20608;-71
2022/07/30 06:15:31;;;;;;;7.40;6.78;;;17.70;99.90;;;;;;4988223;28;20128;-70
2022/07/30 06:18:03;;;;;;;8.32;6.45;;;17.70;99.90;;;;;;5013154;28;20118;-71
2022/07/30 06:20:41;;;;;;;8.63;7.32;;;17.70;99.90;;;;;;4987197;28;20054;-71
2022/07/30 06:23:20;;;;;;;8.63;7.70;;;17.80;99.90;;;;;;5014748;28;20048;-71
2022/07/30 06:26:11;;;;;;;8.40;7.47;;;17.90;99.90;;;;;;5005101;28;20050;-71
2022/07/30 06:28:43;;;;;;;8.63;7.18;;;18.00;99.90;;;;;;5009029;28;20104;-71
2022/07/30 06:31:24;;;;;;;8.63;7.60;;;18.00;99.90;;;;;;5012684;28;20073;-71
2022/07/30 06:33:56;;;;;;;9.20;8.30;;;18.10;99.90;;;;;;5005419;28;20037;-71
2022/07/30 06:36:33;;;;;;;13.20;8.50;;;18.10;99.90;;;;;;4988326;28;20048;-71
2022/07/30 06:39:12;;;;;;;7.80;7.05;;;18.20;99.90;;;;;;5021041;28;20034;-71
2022/07/30 06:41:50;;;;;;;9.90;8.05;;;18.30;99.90;;;;;;5013289;28;20490;-71
2022/07/30 06:44:25;;;;;;;10.23;8.18;;;18.30;99.90;;;;;;5002019;28;20045;-71
2022/07/30 06:47:34;;;;;;;8.98;7.95;;;18.40;99.90;;;;;;4954630;28;20043;-71
2022/07/30 06:50:06;;;;;;;8.50;7.65;;;18.50;99.90;;;;;;4977459;28;20505;-71
2022/07/30 06:52:38;;;;;;;10.95;7.90;;;18.50;99.90;;;;;;4988703;28;20045;-71
2022/07/30 06:55:10;;;;;;;11.02;8.48;;;18.60;99.90;;;;;;5008931;28;20046;-71
2022/07/30 06:57:49;;;;;;;10.73;7.68;;;18.70;99.90;;;;;;4990942;28;20108;-70
2022/07/30 07:00:39;;;;;;;9.10;7.57;;;18.70;99.90;;;;;;5005477;28;20578;-71
2022/07/30 07:03:12;;;;;;;8.75;7.85;;;18.80;99.90;;;;;;4987865;28;20619;-71
2022/07/30 07:05:45;;;;;;;10.50;8.48;;;18.80;99.90;;;;;;4998699;28;20444;-71
2022/07/30 07:08:17;;;;;;;11.90;7.43;;;18.80;99.90;;;;;;5019120;28;20050;-71
2022/07/30 07:10:51;;;;;;;8.35;7.43;;;18.90;99.90;;;;;;5003130;28;20041;-71
2022/07/30 07:13:27;;;;;;;8.68;7.18;;;19.00;99.90;;;;;;5020137;28;20045;-71
2022/07/30 07:16:01;;;;;;;8.57;7.28;;;19.00;99.90;;;;;;5007134;28;20060;-71
2022/07/30 07:18:35;;;;;;;10.75;7.85;;;19.10;99.90;;;;;;4995804;28;20514;-71
2022/07/30 07:21:07;;;;;;;10.93;7.45;;;19.20;99.90;;;;;;5037462;23;20526;-71
2022/07/30 07:23:39;;;;;;;7.80;7.10;;;19.30;99.90;;;;;;5043561;28;20048;-71
2022/07/30 07:26:06;;;;;;;10.07;7.88;;;19.30;99.90;;;;;;5028221;28;20504;-71
2022/07/30 07:28:33;;;;;;;6.97;6.22;;;19.40;99.90;;;;;;5025297;28;20525;-71
2022/07/30 07:31:06;;;;;;;7.68;6.85;;;19.40;99.90;;;;;;5039007;28;20249;-71
2022/07/30 07:33:39;;;;;;;8.52;6.82;;;19.50;99.90;;;;;;5030274;28;20500;-71
2022/07/30 07:36:11;;;;;;;;;;;19.50;99.90;;;;;;5035147;28;20041;-71
2022/07/30 07:38:43;;;;;;;11.35;7.60;;;19.60;99.90;;;;;;5044012;28;19927;-71
2022/07/30 07:41:15;;;;;;;8.27;6.85;;;19.60;99.90;;;;;;5021432;28;20048;-71
2022/07/30 07:43:42;;;;;;;7.20;5.82;;;19.70;99.90;;;;;;5046120;28;20479;-71
2022/07/30 07:46:22;;;;;;;8.57;6.60;;;19.80;99.90;;;;;;5017730;28;20128;-71
2022/07/30 07:48:54;;;;;;;9.75;6.63;;;19.80;99.90;;;;;;5016048;28;20533;-71
2022/07/30 07:51:34;;;;;;;6.78;6.05;;;19.90;99.90;;;;;;5026286;28;20046;-73
2022/07/30 07:54:11;;;;;;;6.40;5.80;;;20.00;99.90;;;;;;5030731;28;20124;-71
2022/07/30 07:56:43;;;;;;;6.55;5.80;;;20.20;99.90;;;;;;5026902;28;20044;-70
2022/07/30 07:59:15;;;;;;;9.43;6.47;;;20.20;99.90;;;;;;5029796;28;20397;-70
2022/07/30 08:01:48;;;;;;;9.27;6.45;;;20.20;99.90;;;;;;5046810;28;20356;-70
2022/07/30 08:04:25;;;;;;;7.70;5.70;;;20.30;99.90;;;;;;5050073;28;20053;-71
2022/07/30 08:07:17;;;;;;;5.43;4.93;;;20.30;99.90;;;;;;5007539;28;20041;-71
2022/07/30 08:10:14;;;;;;;9.05;6.07;;;20.50;99.90;;;;;;5018204;28;20536;-71
2022/07/30 08:13:05;;;;;;;7.38;5.80;;;20.60;99.90;;;;;;5032285;28;20052;-71
2022/07/30 08:16:13;;;;;;;11.80;6.47;;;20.60;99.90;;;;;;4970596;28;20039;-74
2022/07/30 08:18:52;;;;;;;7.97;5.63;;;20.70;99.90;;;;;;5025486;28;20045;-72
2022/07/30 08:21:29;;;;;;;7.00;5.13;;;20.80;99.90;;;;;;5030741;28;20390;-72
2022/07/30 08:24:01;;;;;;;6.22;4.95;;;20.90;99.90;;;;;;5041298;28;20077;-72
2022/07/30 08:26:33;;;;;;;8.15;6.25;;;20.80;99.90;;;;;;5030760;28;20103;-71
2022/07/30 08:29:05;;;;;;;6.38;5.50;;;20.90;99.90;;;;;;5042954;28;20056;-74
2022/07/30 08:31:37;;;;;;;6.97;6.13;;;20.90;99.90;;;;;;5030485;28;20079;-72
2022/07/30 08:34:08;;;;;;;7.70;5.22;;;21.00;99.90;;;;;;5031605;28;20057;-72
2022/07/30 08:36:40;;;;;;;7.53;5.60;;;20.90;99.90;;;;;;5046352;28;20504;-72
2022/07/30 08:39:13;;;;;;;5.53;5.03;;;21.00;99.90;;;;;;5013964;28;20048;-72
2022/07/30 08:41:45;;;;;;;8.95;5.43;;;21.10;99.90;;;;;;5025045;28;20056;-72
2022/07/30 08:44:20;;;;;;;7.28;5.18;;;21.10;99.90;;;;;;5037759;28;20059;-71
2022/07/30 08:46:55;;;;;;;6.55;5.78;;;21.20;99.90;;;;;;5032835;28;20056;-71
2022/07/30 08:49:45;;;;;;;6.88;5.30;;;21.30;99.90;;;;;;5031931;28;20045;-71
2022/07/30 08:52:22;;;;;;;5.72;4.60;;;21.30;99.90;;;;;;5039967;28;20045;-71
2022/07/30 08:54:59;;;;;;;5.70;4.75;;;21.40;99.90;;;;;;5027114;28;20404;-71
2022/07/30 08:57:32;;;;;;;6.57;5.13;;;21.50;99.90;;;;;;5022593;28;20048;-71
2022/07/30 09:00:07;;;;;;;6.95;5.07;;;21.50;99.90;;;;;;5015587;28;20127;-71
2022/07/30 09:02:40;;;;;;;9.52;5.53;;;21.50;99.90;;;;;;5032399;28;20041;-70
2022/07/30 09:05:13;;;;;;;10.98;5.32;;;21.60;99.90;;;;;;5044074;28;20107;-72
2022/07/30 09:07:40;;;;;;;8.07;5.22;;;21.60;99.90;;;;;;5046981;28;20071;-71
2022/07/30 09:10:12;;;;;;;8.03;6.63;;;21.60;99.90;;;;;;5012144;28;20087;-71
2022/07/30 09:12:45;;;;;;;6.40;4.75;;;21.60;99.90;;;;;;5024460;28;20044;-72
2022/07/30 09:15:19;;;;;;;5.78;5.20;;;21.70;99.90;;;;;;5042346;28;20045;-72
2022/07/30 09:18:00;;;;;;;7.38;5.18;;;21.70;99.90;;;;;;5043176;28;20041;-71
2022/07/30 09:20:35;;;;;;;6.35;5.38;;;21.70;99.90;;;;;;5023405;28;20099;-72
2022/07/30 09:23:08;;;;;;;6.75;5.30;;;21.60;99.90;;;;;;5027189;28;20067;-71
2022/07/30 09:26:07;;;;;;;6.72;5.22;;;21.80;99.90;;;;;;5045846;28;20038;-71
2022/07/30 09:28:39;;;;;;;6.18;5.32;;;21.80;99.90;;;;;;5027472;28;20128;-71
2022/07/30 09:31:15;;;;;;;6.43;5.63;;;21.90;99.90;;;;;;5043423;28;20049;-72
2022/07/30 09:34:23;;;;;;;6.32;5.03;;;21.80;99.90;;;;;;5041663;28;20130;-71
2022/07/30 09:37:03;;;;;;;7.03;5.65;;;22.00;99.90;;;;;;5046723;28;20072;-71
2022/07/30 09:40:14;;;;;;;5.10;4.57;;;22.10;99.90;;;;;;5041098;28;20441;-71
2022/07/30 09:43:09;;;;;;;5.90;5.03;;;21.90;99.90;;;;;;5041840;28;20052;-71
2022/07/30 09:45:54;;;;;;;5.45;4.72;;;21.90;99.90;;;;;;5028504;28;20045;-71
2022/07/30 09:48:27;;;;;;;8.38;5.43;;;22.20;99.90;;;;;;5030860;28;20037;-72
2022/07/30 09:50:59;;;;;;;6.95;4.93;;;22.40;99.90;;;;;;5025897;28;20085;-71
2022/07/30 09:53:31;;;;;;;6.43;5.00;;;22.40;99.90;;;;;;5044082;28;20057;-71
2022/07/30 09:56:23;;;;;;;8.43;5.05;;;22.50;99.90;;;;;;5027935;28;20069;-71
2022/07/30 09:58:56;;;;;;;6.65;4.80;;;22.50;99.90;;;;;;5012019;28;20037;-71
2022/07/30 10:01:27;;;;;;;5.22;3.80;;;22.70;99.90;;;;;;5015536;28;20037;-71
2022/07/30 10:04:29;;;;;;;6.40;3.78;;;22.80;99.90;;;;;;5050303;28;20202;-71
2022/07/30 10:07:17;;;;;;;5.30;4.40;;;22.60;99.90;;;;;;5031839;28;20051;-71
2022/07/30 10:09:51;;;;;;;5.78;4.18;;;22.70;99.90;;;;;;5031627;28;20029;-74
2022/07/30 10:12:20;;;;;;;4.47;4.07;;;22.80;99.90;;;;;;5031494;28;20055;-72
2022/07/30 10:14:53;;;;;;;5.28;3.88;;;22.80;99.90;;;;;;5027160;28;20052;-71
2022/07/30 10:17:30;;;;;;;4.05;3.63;;;22.80;99.90;;;;;;5043028;28;20045;-71
2022/07/30 10:20:20;;;;;;;4.70;3.08;;;22.80;99.90;;;;;;5030837;28;20045;-71
2022/07/30 10:23:11;;;;;;;5.70;3.33;;;23.00;99.90;;;;;;5025946;28;20792;-71
2022/07/30 10:26:03;;;;;;;3.75;3.20;;;23.00;99.90;;;;;;5031234;28;20055;-71
2022/07/30 10:29:16;;;;;;;3.65;2.70;;;23.00;99.10;;;;;;5047497;28;20135;-71
2022/07/30 10:31:49;;;;;;;6.70;3.13;;;23.10;99.30;;;;;;5042021;28;20517;-71
2022/07/30 10:34:18;;;;;;;8.52;3.10;;;23.10;98.80;;;;;;5023183;28;20508;-71
2022/07/30 10:36:55;;;;;;;4.55;2.80;;;23.10;98.10;;;;;;5025866;28;20046;-71
2022/07/30 10:39:33;;;;;;;2.90;2.50;;;23.20;98.10;;;;;;5041267;28;20045;-72
2022/07/30 10:42:15;;;;;;;6.15;2.63;;;23.20;97.20;;;;;;5026795;28;20044;-71
2022/07/30 10:45:11;;;;;;;6.57;3.65;;;23.20;97.80;;;;;;5040546;28;20049;-71
2022/07/30 10:47:47;;;;;;;4.43;2.65;;;23.20;96.50;;;;;;5031188;28;20043;-71
2022/07/30 10:50:25;;;;;;;5.00;3.15;;;23.00;96.20;;;;;;5043949;28;20036;-71
2022/07/30 10:53:02;;;;;;;4.03;3.33;;;22.90;96.20;;;;;;5039661;28;20393;-71
2022/07/30 10:55:34;;;;;;;7.32;3.17;;;22.90;97.40;;;;;;5026478;28;20045;-71
2022/07/30 10:58:12;;;;;;;6.25;3.97;;;22.80;97.20;;;;;;5038503;28;20052;-71
2022/07/30 11:00:53;;;;;;;5.15;3.45;;;22.80;97.20;;;;;;5042885;28;20052;-71
2022/07/30 11:03:26;;;;;;;3.78;3.13;;;23.00;98.00;;;;;;5025621;28;20045;-71
2022/07/30 11:06:13;;;;;;;6.57;3.58;;;23.20;97.30;;;;;;5013467;28;20056;-71
2022/07/30 11:08:47;;;;;;;5.38;3.08;;;23.20;96.80;;;;;;5030630;28;20032;-71
2022/07/30 11:11:21;;;;;;;3.95;3.55;;;23.10;98.00;;;;;;5041748;28;20037;-71
2022/07/30 11:13:58;;;;;;;7.85;4.00;;;23.00;97.00;;;;;;5038364;28;20122;-71
2022/07/30 11:16:32;;;;;;;4.13;3.15;;;22.90;96.90;;;;;;5042756;28;20056;-71
2022/07/30 11:19:16;;;;;;;4.60;4.20;;;23.00;97.00;;;;;;5000124;28;20045;-71
2022/07/30 11:22:21;;;;;;;3.53;3.22;;;23.10;97.40;;;;;;5037399;28;20048;-73
2022/07/30 11:24:53;;;;;;;6.32;3.13;;;23.00;95.60;;;;;;5042151;28;20517;-71
2022/07/30 11:27:38;;;;;;;6.55;3.47;;;23.00;96.10;;;;;;5045140;28;20139;-71
2022/07/30 11:30:16;;;;;;;4.03;3.45;;;22.90;95.50;;;;;;5012498;28;20688;-71
2022/07/30 11:32:52;;;;;;;3.60;3.30;;;22.90;95.90;;;;;;5036366;28;20037;-70
2022/07/30 11:35:28;;;;;;;3.97;3.33;;;23.00;95.60;;;;;;5018870;28;20045;-71
2022/07/30 11:38:00;;;;;;;4.28;3.53;;;23.00;95.10;;;;;;5020707;28;20088;-71
2022/07/30 11:40:33;;;;;;;5.35;3.45;;;23.10;95.70;;;;;;5046501;28;20047;-71
2022/07/30 11:43:18;;;;;;;4.10;3.22;;;23.50;96.40;;;;;;5025276;28;20051;-70
2022/07/30 11:46:03;;;;;;;6.25;3.20;;;23.80;94.30;;;;;;5039656;28;20049;-71
2022/07/30 11:48:40;;;;;;;3.83;3.42;;;24.00;94.80;;;;;;5026263;28;20580;-71
2022/07/30 11:51:12;;;;;;;4.15;3.08;;;24.20;94.50;;;;;;5041948;28;20132;-70
2022/07/30 11:53:44;;;;;;;3.30;3.00;;;24.30;93.90;;;;;;5040875;28;20049;-70
2022/07/30 11:56:16;;;;;;;4.05;3.03;;;24.50;93.50;;;;;;5037348;28;20041;-71
2022/07/30 11:58:48;;;;;;;3.83;3.00;;;24.70;93.30;;;;;;5026042;28;20068;-70
2022/07/30 12:01:19;;;;;;;3.75;2.70;;;24.70;92.10;;;;;;5038062;28;20040;-70
2022/07/30 12:03:51;;;;;;;3.58;3.13;;;24.70;91.90;;;;;;5026503;28;20068;-70
2022/07/30 12:06:23;;;;;;;7.70;4.38;;;24.70;91.90;;;;;;5025498;28;20041;-70
2022/07/30 12:08:55;;;;;;;4.53;3.30;;;24.70;91.40;;;;;;5014042;28;20041;-71
2022/07/30 12:11:34;;;;;;;4.57;3.30;;;24.60;91.60;;;;;;5039643;28;20582;-70
2022/07/30 12:14:06;;;;;;;3.30;3.00;;;24.40;91.30;;;;;;5029174;28;20556;-73
2022/07/30 12:16:39;;;;;;;4.10;2.55;;;24.50;91.20;;;;;;5022845;28;20039;-71
2022/07/30 12:19:12;;;;;;;3.15;2.58;;;24.80;91.70;;;;;;5040178;28;20063;-71
2022/07/30 12:21:44;;;;;;;2.50;2.30;;;25.00;90.30;;;;;;5040001;28;20044;-71
2022/07/30 12:24:25;;;;;;;9.30;3.92;;;25.00;88.40;;;;;;5044360;28;20049;-71
2022/07/30 12:27:04;;;;;;;2.80;2.60;;;24.90;88.90;;;;;;5043282;28;20044;-71
2022/07/30 12:29:36;;;;;;;3.03;2.72;;;24.80;88.20;;;;;;5022234;28;20046;-71
2022/07/30 12:32:08;;;;;;;3.22;2.47;;;25.00;89.70;;;;;;5036615;28;20130;-71
2022/07/30 12:34:54;;;;;;;3.63;2.80;;;25.10;88.20;;;;;;5020530;28;20037;-71
2022/07/30 12:37:26;;;;;;;2.92;2.35;;;25.10;87.10;;;;;;5013758;28;20044;-71
2022/07/30 12:40:06;;;;;;;2.80;2.38;;;25.30;88.60;;;;;;5027349;28;20052;-72
2022/07/30 12:42:54;;;;;;;5.35;2.97;;;25.40;88.30;;;;;;5028865;28;20135;-71
2022/07/30 12:45:31;;;;;;;3.85;2.30;;;25.60;84.70;;;;;;5028658;28;20052;-71
2022/07/30 12:48:09;;;;;;;2.63;2.22;;;25.50;86.20;;;;;;5042615;28;20047;-71
2022/07/30 12:50:41;;;;;;;4.88;2.83;;;25.50;83.20;;;;;;5046099;28;20048;-71
2022/07/30 12:53:12;;;;;;;4.82;2.92;;;25.60;86.20;;;;;;5041789;28;20044;-71
2022/07/30 12:55:44;;;;;;;3.25;2.63;;;25.70;85.50;;;;;;5022487;28;20045;-71
2022/07/30 12:58:16;;;;;;;3.40;2.58;;;25.70;82.70;;;;;;5019354;28;20049;-71
2022/07/30 13:00:53;;;;;;;3.10;2.15;;;25.60;83.90;;;;;;5040279;28;20040;-72
2022/07/30 13:03:21;;;;;;;5.38;2.22;;;25.70;85.50;;;;;;5023970;28;20076;-71
2022/07/30 13:05:54;;;;;;;;;;;25.90;81.50;;;;;;5043808;28;20041;-71
2022/07/30 13:08:46;;;;;;;3.45;2.70;;;25.90;81.60;;;;;;5031853;28;20300;-71
2022/07/30 13:11:20;;;;;;;2.33;2.00;;;25.90;82.00;;;;;;5025587;28;20076;-70
2022/07/30 13:13:52;;;;;;;4.65;2.38;;;25.90;80.60;;;;;;5019607;28;20045;-71
2022/07/30 13:16:23;;;;;;;3.23;2.70;;;25.80;79.70;;;;;;5021172;28;20037;-71
2022/07/30 13:18:55;;;;;;;3.35;2.47;;;25.80;81.10;;;;;;5038565;28;20059;-71
2022/07/30 13:21:27;;;;;;;3.97;2.63;;;26.00;83.60;;;;;;5039412;28;20124;-76
2022/07/30 13:24:00;;;;;;;4.05;2.20;;;26.30;83.50;;;;;;5010668;28;20041;-71
2022/07/30 13:26:34;;;;;;;3.88;2.67;;;26.20;80.10;;;;;;5039293;28;20037;-71
2022/07/30 13:29:06;;;;;;;6.38;3.58;;;26.20;81.70;;;;;;5040101;28;20417;-70
2022/07/30 13:31:38;;;;;;;2.72;2.22;;;26.00;79.60;;;;;;5038697;28;20400;-71
2022/07/30 13:34:10;;;;;;;4.47;2.67;;;25.90;78.30;;;;;;5012394;28;20045;-71
2022/07/30 13:36:43;;;;;;;2.58;1.95;;;26.10;79.30;;;;;;5043702;23;20033;-85
2022/07/30 13:39:11;;;;;;;2.65;2.45;;;26.40;79.80;;;;;;5031302;28;20048;-84